Muir Army Air Field (Fort Indiantown Gap) Airport Fort Indiantown Gap(Annville) US
ICAO: KMUI
IATA: MUI
Category: Medium
Scheduled Services: No

Elevation: 488 ft
TransAlt. 18000 ft.

Airport Communications:
HARRISBURG APP/DEP:118.25
CTAF:126.2
GND:121.625
FLT FLW:40.9
ARNG OPS:49.95
TWR:126.2

KMUI Zoom In..

Runways:

(A) RW 07 length 3978 ft width 98 ft
---- / hdg 70

(B) RW 25 length 3978 ft width 98 ft
---- / hdg 250

Location; KMUI
Day. 23 / Time. 07.44 Zulu
* Altimeter: 29.93
* Temperature: 5/° c. 41°f.
* Wind from: 080° Speed 03 kn.
Dewpoint: V1° c.
Visibility: 5/8 Statute Miles.
Conditions: Mist.

KMUI 230744Z AUTO 08003KT 5/8SM +TSRA BR VV016 21/21 A2993 RMK AO2 VIS 5/8V1 1/4 RAE0659RAB00 SLP135 RVRNO $


Wind From 080°
Speed 03 kn.

 
 
jpsmedia.com for Web Design worldairports.se 2018   terms of use